sensor_id;sensor_type;location;lat;lon;timestamp;P1;durP1;ratioP1;P2;durP2;ratioP2
47481;SDS011;33219;47.410;9.730;2023-02-28T00:01:20;11.97;;;7.23;;
47481;SDS011;33219;47.410;9.730;2023-02-28T00:03:48;11.97;;;8.07;;
47481;SDS011;33219;47.410;9.730;2023-02-28T00:06:16;11.37;;;8.10;;
47481;SDS011;33219;47.410;9.730;2023-02-28T00:08:44;11.17;;;7.70;;
47481;SDS011;33219;47.410;9.730;2023-02-28T00:11:12;10.50;;;7.20;;
47481;SDS011;33219;47.410;9.730;2023-02-28T00:13:42;12.87;;;8.23;;
47481;SDS011;33219;47.410;9.730;2023-02-28T00:16:16;13.13;;;8.10;;
47481;SDS011;33219;47.410;9.730;2023-02-28T00:18:45;10.17;;;7.63;;
47481;SDS011;33219;47.410;9.730;2023-02-28T00:21:16;14.33;;;8.50;;
47481;SDS011;33219;47.410;9.730;2023-02-28T00:23:45;14.27;;;9.17;;
47481;SDS011;33219;47.410;9.730;2023-02-28T00:26:13;13.27;;;8.73;;
47481;SDS011;33219;47.410;9.730;2023-02-28T00:28:41;12.27;;;8.77;;
47481;SDS011;33219;47.410;9.730;2023-02-28T00:31:09;12.67;;;8.43;;
47481;SDS011;33219;47.410;9.730;2023-02-28T00:33:36;12.47;;;8.20;;
47481;SDS011;33219;47.410;9.730;2023-02-28T00:36:05;10.70;;;7.83;;
47481;SDS011;33219;47.410;9.730;2023-02-28T00:38:34;13.83;;;8.30;;
47481;SDS011;33219;47.410;9.730;2023-02-28T00:41:02;12.70;;;7.97;;
47481;SDS011;33219;47.410;9.730;2023-02-28T00:43:33;14.00;;;8.33;;
47481;SDS011;33219;47.410;9.730;2023-02-28T00:46:02;12.67;;;7.93;;
47481;SDS011;33219;47.410;9.730;2023-02-28T00:48:30;11.53;;;7.57;;
47481;SDS011;33219;47.410;9.730;2023-02-28T00:50:58;9.53;;;7.20;;
47481;SDS011;33219;47.410;9.730;2023-02-28T00:53:25;9.93;;;6.73;;
47481;SDS011;33219;47.410;9.730;2023-02-28T00:55:53;10.87;;;6.63;;
47481;SDS011;33219;47.410;9.730;2023-02-28T00:58:21;10.27;;;7.00;;
47481;SDS011;33219;47.410;9.730;2023-02-28T01:00:48;9.43;;;6.43;;
47481;SDS011;33219;47.410;9.730;2023-02-28T01:03:20;11.90;;;6.93;;
47481;SDS011;33219;47.410;9.730;2023-02-28T01:05:48;11.43;;;7.20;;
47481;SDS011;33219;47.410;9.730;2023-02-28T01:08:16;9.87;;;6.30;;
47481;SDS011;33219;47.410;9.730;2023-02-28T01:10:43;10.60;;;6.93;;
47481;SDS011;33219;47.410;9.730;2023-02-28T01:13:11;11.57;;;6.43;;
47481;SDS011;33219;47.410;9.730;2023-02-28T01:15:48;10.60;;;6.50;;
47481;SDS011;33219;47.410;9.730;2023-02-28T01:18:19;8.97;;;5.77;;
47481;SDS011;33219;47.410;9.730;2023-02-28T01:20:47;9.27;;;6.07;;
47481;SDS011;33219;47.410;9.730;2023-02-28T01:23:16;9.60;;;5.53;;
47481;SDS011;33219;47.410;9.730;2023-02-28T01:25:45;7.57;;;5.33;;
47481;SDS011;33219;47.410;9.730;2023-02-28T01:28:13;9.73;;;5.70;;
47481;SDS011;33219;47.410;9.730;2023-02-28T01:30:41;9.83;;;6.10;;
47481;SDS011;33219;47.410;9.730;2023-02-28T01:33:08;8.47;;;5.40;;
47481;SDS011;33219;47.410;9.730;2023-02-28T01:35:36;7.40;;;5.37;;
47481;SDS011;33219;47.410;9.730;2023-02-28T01:38:03;8.70;;;5.87;;
47481;SDS011;33219;47.410;9.730;2023-02-28T01:40:31;8.33;;;5.97;;
47481;SDS011;33219;47.410;9.730;2023-02-28T01:42:59;10.33;;;6.17;;
47481;SDS011;33219;47.410;9.730;2023-02-28T01:45:28;10.23;;;6.67;;
47481;SDS011;33219;47.410;9.730;2023-02-28T01:47:58;10.87;;;6.47;;
47481;SDS011;33219;47.410;9.730;2023-02-28T01:50:31;10.23;;;6.83;;
47481;SDS011;33219;47.410;9.730;2023-02-28T01:53:02;9.57;;;6.73;;
47481;SDS011;33219;47.410;9.730;2023-02-28T01:55:34;9.93;;;6.33;;
47481;SDS011;33219;47.410;9.730;2023-02-28T01:58:04;8.67;;;6.00;;
47481;SDS011;33219;47.410;9.730;2023-02-28T02:00:34;9.67;;;6.03;;
47481;SDS011;33219;47.410;9.730;2023-02-28T02:03:05;8.57;;;6.00;;
47481;SDS011;33219;47.410;9.730;2023-02-28T02:05:36;9.00;;;5.90;;
47481;SDS011;33219;47.410;9.730;2023-02-28T02:08:05;10.53;;;6.23;;
47481;SDS011;33219;47.410;9.730;2023-02-28T02:10:35;10.07;;;5.67;;
47481;SDS011;33219;47.410;9.730;2023-02-28T02:18:46;11.57;;;6.70;;
47481;SDS011;33219;47.410;9.730;2023-02-28T02:29:42;11.30;;;6.47;;
47481;SDS011;33219;47.410;9.730;2023-02-28T02:37:42;11.83;;;6.80;;
47481;SDS011;33219;47.410;9.730;2023-02-28T02:40:20;9.67;;;6.27;;
47481;SDS011;33219;47.410;9.730;2023-02-28T02:42:56;9.08;;;5.55;;
47481;SDS011;33219;47.410;9.730;2023-02-28T02:45:32;9.63;;;6.27;;
47481;SDS011;33219;47.410;9.730;2023-02-28T02:48:03;9.47;;;6.30;;
47481;SDS011;33219;47.410;9.730;2023-02-28T02:50:55;9.87;;;7.00;;
47481;SDS011;33219;47.410;9.730;2023-02-28T02:53:06;11.30;;;5.70;;
47481;SDS011;33219;47.410;9.730;2023-02-28T02:55:37;9.47;;;5.17;;
47481;SDS011;33219;47.410;9.730;2023-02-28T02:58:07;10.67;;;6.00;;
47481;SDS011;33219;47.410;9.730;2023-02-28T03:00:37;8.17;;;5.50;;
47481;SDS011;33219;47.410;9.730;2023-02-28T03:03:09;10.23;;;5.87;;
47481;SDS011;33219;47.410;9.730;2023-02-28T03:05:43;8.03;;;5.63;;
47481;SDS011;33219;47.410;9.730;2023-02-28T03:08:16;7.87;;;5.33;;
47481;SDS011;33219;47.410;9.730;2023-02-28T03:10:45;8.97;;;5.20;;
47481;SDS011;33219;47.410;9.730;2023-02-28T03:24:03;10.13;;;7.13;;
47481;SDS011;33219;47.410;9.730;2023-02-28T03:26:39;11.47;;;7.50;;
47481;SDS011;33219;47.410;9.730;2023-02-28T03:31:50;11.57;;;7.63;;
47481;SDS011;33219;47.410;9.730;2023-02-28T03:34:21;13.03;;;7.57;;
47481;SDS011;33219;47.410;9.730;2023-02-28T03:36:55;12.97;;;8.03;;
47481;SDS011;33219;47.410;9.730;2023-02-28T03:39:21;14.23;;;7.77;;
47481;SDS011;33219;47.410;9.730;2023-02-28T03:41:57;13.00;;;8.00;;
47481;SDS011;33219;47.410;9.730;2023-02-28T03:44:29;12.90;;;8.33;;
47481;SDS011;33219;47.410;9.730;2023-02-28T03:47:03;12.33;;;8.10;;
47481;SDS011;33219;47.410;9.730;2023-02-28T03:49:42;12.97;;;8.73;;
47481;SDS011;33219;47.410;9.730;2023-02-28T03:52:17;12.50;;;7.93;;
47481;SDS011;33219;47.410;9.730;2023-02-28T03:54:48;13.03;;;8.53;;
47481;SDS011;33219;47.410;9.730;2023-02-28T04:02:47;13.97;;;8.67;;
47481;SDS011;33219;47.410;9.730;2023-02-28T04:05:17;13.00;;;8.23;;
47481;SDS011;33219;47.410;9.730;2023-02-28T04:07:46;11.83;;;7.90;;
47481;SDS011;33219;47.410;9.730;2023-02-28T04:10:14;10.67;;;7.97;;
47481;SDS011;33219;47.410;9.730;2023-02-28T04:12:42;13.53;;;8.33;;
47481;SDS011;33219;47.410;9.730;2023-02-28T04:15:10;12.13;;;8.40;;
47481;SDS011;33219;47.410;9.730;2023-02-28T04:17:37;12.53;;;8.33;;
47481;SDS011;33219;47.410;9.730;2023-02-28T04:20:08;12.73;;;8.27;;
47481;SDS011;33219;47.410;9.730;2023-02-28T04:22:37;10.87;;;7.93;;
47481;SDS011;33219;47.410;9.730;2023-02-28T04:25:05;14.50;;;9.13;;
47481;SDS011;33219;47.410;9.730;2023-02-28T04:27:33;14.17;;;8.93;;
47481;SDS011;33219;47.410;9.730;2023-02-28T04:30:01;13.27;;;9.07;;
47481;SDS011;33219;47.410;9.730;2023-02-28T04:32:29;15.33;;;9.00;;
47481;SDS011;33219;47.410;9.730;2023-02-28T04:34:57;15.40;;;8.40;;
47481;SDS011;33219;47.410;9.730;2023-02-28T04:37:24;13.13;;;8.60;;
47481;SDS011;33219;47.410;9.730;2023-02-28T04:39:53;11.90;;;8.13;;
47481;SDS011;33219;47.410;9.730;2023-02-28T04:42:21;11.77;;;8.20;;
47481;SDS011;33219;47.410;9.730;2023-02-28T04:44:49;14.47;;;9.00;;
47481;SDS011;33219;47.410;9.730;2023-02-28T04:47:16;13.23;;;8.70;;
47481;SDS011;33219;47.410;9.730;2023-02-28T04:49:44;13.07;;;9.53;;
47481;SDS011;33219;47.410;9.730;2023-02-28T04:52:11;14.03;;;8.87;;
47481;SDS011;33219;47.410;9.730;2023-02-28T04:54:39;15.70;;;9.73;;
47481;SDS011;33219;47.410;9.730;2023-02-28T04:57:06;15.20;;;8.80;;
47481;SDS011;33219;47.410;9.730;2023-02-28T04:59:34;13.00;;;8.30;;
47481;SDS011;33219;47.410;9.730;2023-02-28T05:02:01;14.03;;;8.93;;
47481;SDS011;33219;47.410;9.730;2023-02-28T05:04:31;13.50;;;8.37;;
47481;SDS011;33219;47.410;9.730;2023-02-28T05:07:01;14.40;;;7.87;;
47481;SDS011;33219;47.410;9.730;2023-02-28T05:09:29;14.70;;;8.70;;
47481;SDS011;33219;47.410;9.730;2023-02-28T05:11:58;13.40;;;9.20;;
47481;SDS011;33219;47.410;9.730;2023-02-28T05:14:26;14.43;;;9.40;;
47481;SDS011;33219;47.410;9.730;2023-02-28T05:16:53;13.57;;;8.60;;
47481;SDS011;33219;47.410;9.730;2023-02-28T05:19:21;13.53;;;8.70;;
47481;SDS011;33219;47.410;9.730;2023-02-28T05:21:54;15.67;;;9.23;;
47481;SDS011;33219;47.410;9.730;2023-02-28T05:24:22;15.50;;;8.83;;
47481;SDS011;33219;47.410;9.730;2023-02-28T05:26:50;13.20;;;8.27;;
47481;SDS011;33219;47.410;9.730;2023-02-28T05:29:19;14.23;;;9.53;;
47481;SDS011;33219;47.410;9.730;2023-02-28T05:31:47;13.60;;;8.77;;
47481;SDS011;33219;47.410;9.730;2023-02-28T05:34:15;12.90;;;8.80;;
47481;SDS011;33219;47.410;9.730;2023-02-28T05:36:43;17.20;;;9.70;;
47481;SDS011;33219;47.410;9.730;2023-02-28T05:39:11;15.97;;;9.37;;
47481;SDS011;33219;47.410;9.730;2023-02-28T05:41:39;15.57;;;10.07;;
47481;SDS011;33219;47.410;9.730;2023-02-28T05:44:08;16.67;;;10.33;;
47481;SDS011;33219;47.410;9.730;2023-02-28T05:46:36;16.90;;;9.63;;
47481;SDS011;33219;47.410;9.730;2023-02-28T05:49:04;19.33;;;11.23;;
47481;SDS011;33219;47.410;9.730;2023-02-28T05:51:31;24.17;;;12.97;;
47481;SDS011;33219;47.410;9.730;2023-02-28T05:54:01;32.67;;;15.13;;
47481;SDS011;33219;47.410;9.730;2023-02-28T05:56:29;31.97;;;17.73;;
47481;SDS011;33219;47.410;9.730;2023-02-28T05:58:56;33.10;;;16.67;;
47481;SDS011;33219;47.410;9.730;2023-02-28T06:01:30;27.40;;;14.23;;
47481;SDS011;33219;47.410;9.730;2023-02-28T06:04:04;47.80;;;19.27;;
47481;SDS011;33219;47.410;9.730;2023-02-28T06:06:33;33.83;;;15.50;;
47481;SDS011;33219;47.410;9.730;2023-02-28T06:09:03;21.17;;;11.40;;
47481;SDS011;33219;47.410;9.730;2023-02-28T06:11:31;18.57;;;11.13;;
47481;SDS011;33219;47.410;9.730;2023-02-28T06:13:59;22.67;;;14.47;;
47481;SDS011;33219;47.410;9.730;2023-02-28T06:16:28;20.00;;;12.60;;
47481;SDS011;33219;47.410;9.730;2023-02-28T06:18:57;19.50;;;12.27;;
47481;SDS011;33219;47.410;9.730;2023-02-28T06:21:25;17.83;;;11.87;;
47481;SDS011;33219;47.410;9.730;2023-02-28T06:26:30;17.63;;;10.90;;
47481;SDS011;33219;47.410;9.730;2023-02-28T06:28:59;18.07;;;10.50;;
47481;SDS011;33219;47.410;9.730;2023-02-28T06:31:34;17.43;;;10.53;;
47481;SDS011;33219;47.410;9.730;2023-02-28T06:34:04;18.03;;;11.03;;
47481;SDS011;33219;47.410;9.730;2023-02-28T06:39:46;20.13;;;12.63;;
47481;SDS011;33219;47.410;9.730;2023-02-28T06:45:09;20.87;;;11.53;;
47481;SDS011;33219;47.410;9.730;2023-02-28T06:47:44;20.73;;;11.57;;
47481;SDS011;33219;47.410;9.730;2023-02-28T06:50:32;18.97;;;11.77;;
47481;SDS011;33219;47.410;9.730;2023-02-28T06:53:10;20.80;;;12.10;;
47481;SDS011;33219;47.410;9.730;2023-02-28T06:55:59;21.23;;;11.87;;
47481;SDS011;33219;47.410;9.730;2023-02-28T06:58:37;22.40;;;11.73;;
47481;SDS011;33219;47.410;9.730;2023-02-28T07:10:29;19.13;;;12.13;;
47481;SDS011;33219;47.410;9.730;2023-02-28T07:43:01;13.53;;;8.63;;
47481;SDS011;33219;47.410;9.730;2023-02-28T07:49:39;11.77;;;8.23;;
47481;SDS011;33219;47.410;9.730;2023-02-28T08:07:16;11.13;;;7.40;;
47481;SDS011;33219;47.410;9.730;2023-02-28T08:13:16;10.43;;;7.80;;
47481;SDS011;33219;47.410;9.730;2023-02-28T08:34:38;10.50;;;8.13;;
47481;SDS011;33219;47.410;9.730;2023-02-28T08:40:56;11.20;;;7.97;;
47481;SDS011;33219;47.410;9.730;2023-02-28T09:02:14;10.15;;;7.10;;
47481;SDS011;33219;47.410;9.730;2023-02-28T09:08:12;12.00;;;8.55;;
47481;SDS011;33219;47.410;9.730;2023-02-28T09:20:46;9.78;;;7.58;;
47481;SDS011;33219;47.410;9.730;2023-02-28T09:39:02;9.60;;;7.10;;
47481;SDS011;33219;47.410;9.730;2023-02-28T09:41:41;9.65;;;7.50;;
47481;SDS011;33219;47.410;9.730;2023-02-28T09:47:12;10.65;;;7.50;;
47481;SDS011;33219;47.410;9.730;2023-02-28T09:52:25;10.45;;;7.87;;
47481;SDS011;33219;47.410;9.730;2023-02-28T10:07:12;10.90;;;8.28;;
47481;SDS011;33219;47.410;9.730;2023-02-28T10:16:43;11.78;;;8.70;;
47481;SDS011;33219;47.410;9.730;2023-02-28T10:19:22;10.27;;;7.80;;
47481;SDS011;33219;47.410;9.730;2023-02-28T10:21:59;11.07;;;8.60;;
47481;SDS011;33219;47.410;9.730;2023-02-28T10:24:50;10.13;;;8.47;;
47481;SDS011;33219;47.410;9.730;2023-02-28T10:27:32;11.90;;;8.60;;
47481;SDS011;33219;47.410;9.730;2023-02-28T10:33:24;13.27;;;8.63;;
47481;SDS011;33219;47.410;9.730;2023-02-28T10:49:33;11.93;;;8.33;;
47481;SDS011;33219;47.410;9.730;2023-02-28T11:07:41;14.80;;;9.80;;
47481;SDS011;33219;47.410;9.730;2023-02-28T11:22:53;13.85;;;9.98;;
47481;SDS011;33219;47.410;9.730;2023-02-28T11:29:09;13.50;;;9.25;;
47481;SDS011;33219;47.410;9.730;2023-02-28T11:32:23;12.28;;;8.60;;
47481;SDS011;33219;47.410;9.730;2023-02-28T11:44:21;13.30;;;9.95;;
47481;SDS011;33219;47.410;9.730;2023-02-28T11:46:59;12.18;;;9.28;;
47481;SDS011;33219;47.410;9.730;2023-02-28T11:55:12;15.20;;;9.53;;
47481;SDS011;33219;47.410;9.730;2023-02-28T12:03:25;12.73;;;9.68;;
47481;SDS011;33219;47.410;9.730;2023-02-28T12:25:47;13.45;;;9.83;;
47481;SDS011;33219;47.410;9.730;2023-02-28T12:28:20;13.62;;;9.23;;
47481;SDS011;33219;47.410;9.730;2023-02-28T12:31:06;12.82;;;9.75;;
47481;SDS011;33219;47.410;9.730;2023-02-28T12:33:43;12.93;;;9.20;;
47481;SDS011;33219;47.410;9.730;2023-02-28T12:36:14;14.23;;;9.88;;
47481;SDS011;33219;47.410;9.730;2023-02-28T13:17:27;14.18;;;10.43;;
47481;SDS011;33219;47.410;9.730;2023-02-28T13:23:38;13.78;;;10.03;;
47481;SDS011;33219;47.410;9.730;2023-02-28T13:26:18;14.05;;;10.32;;
47481;SDS011;33219;47.410;9.730;2023-02-28T13:35:42;14.20;;;10.40;;
47481;SDS011;33219;47.410;9.730;2023-02-28T13:38:31;14.03;;;9.85;;
47481;SDS011;33219;47.410;9.730;2023-02-28T13:50:13;14.07;;;10.45;;
47481;SDS011;33219;47.410;9.730;2023-02-28T13:52:51;13.50;;;10.18;;
47481;SDS011;33219;47.410;9.730;2023-02-28T13:59:06;12.37;;;9.73;;
47481;SDS011;33219;47.410;9.730;2023-02-28T14:05:35;13.22;;;9.73;;
47481;SDS011;33219;47.410;9.730;2023-02-28T14:08:26;12.73;;;9.43;;
47481;SDS011;33219;47.410;9.730;2023-02-28T14:11:05;14.28;;;10.08;;
47481;SDS011;33219;47.410;9.730;2023-02-28T14:16:50;12.80;;;9.95;;
47481;SDS011;33219;47.410;9.730;2023-02-28T14:19:25;13.88;;;9.90;;
47481;SDS011;33219;47.410;9.730;2023-02-28T14:22:02;15.70;;;10.20;;
47481;SDS011;33219;47.410;9.730;2023-02-28T14:38:29;13.48;;;9.53;;
47481;SDS011;33219;47.410;9.730;2023-02-28T14:41:00;14.20;;;10.08;;
47481;SDS011;33219;47.410;9.730;2023-02-28T14:43:29;14.15;;;10.48;;
47481;SDS011;33219;47.410;9.730;2023-02-28T14:46:01;13.53;;;9.73;;
47481;SDS011;33219;47.410;9.730;2023-02-28T14:48:31;14.70;;;10.50;;
47481;SDS011;33219;47.410;9.730;2023-02-28T14:51:01;13.98;;;9.53;;
47481;SDS011;33219;47.410;9.730;2023-02-28T14:53:30;12.93;;;9.43;;
47481;SDS011;33219;47.410;9.730;2023-02-28T14:56:00;13.65;;;10.05;;
47481;SDS011;33219;47.410;9.730;2023-02-28T14:58:29;13.20;;;10.65;;
47481;SDS011;33219;47.410;9.730;2023-02-28T15:00:59;13.10;;;9.58;;
47481;SDS011;33219;47.410;9.730;2023-02-28T15:03:35;13.70;;;9.73;;
47481;SDS011;33219;47.410;9.730;2023-02-28T15:06:05;13.88;;;9.58;;
47481;SDS011;33219;47.410;9.730;2023-02-28T15:08:35;13.20;;;10.18;;
47481;SDS011;33219;47.410;9.730;2023-02-28T15:13:52;16.85;;;10.80;;
47481;SDS011;33219;47.410;9.730;2023-02-28T15:16:25;14.90;;;10.35;;
47481;SDS011;33219;47.410;9.730;2023-02-28T15:18:56;15.85;;;10.75;;
47481;SDS011;33219;47.410;9.730;2023-02-28T15:21:35;15.53;;;10.85;;
47481;SDS011;33219;47.410;9.730;2023-02-28T15:24:16;13.15;;;10.30;;
47481;SDS011;33219;47.410;9.730;2023-02-28T15:26:46;15.98;;;10.50;;
47481;SDS011;33219;47.410;9.730;2023-02-28T15:29:16;16.82;;;10.48;;
47481;SDS011;33219;47.410;9.730;2023-02-28T15:31:48;14.85;;;10.72;;
47481;SDS011;33219;47.410;9.730;2023-02-28T15:34:20;16.50;;;10.80;;
47481;SDS011;33219;47.410;9.730;2023-02-28T15:39:56;17.53;;;11.87;;
47481;SDS011;33219;47.410;9.730;2023-02-28T15:42:27;16.23;;;10.83;;
47481;SDS011;33219;47.410;9.730;2023-02-28T15:44:55;15.50;;;10.23;;
47481;SDS011;33219;47.410;9.730;2023-02-28T15:47:24;16.57;;;11.10;;
47481;SDS011;33219;47.410;9.730;2023-02-28T15:49:57;17.37;;;11.27;;
47481;SDS011;33219;47.410;9.730;2023-02-28T15:52:40;17.20;;;10.83;;
47481;SDS011;33219;47.410;9.730;2023-02-28T15:55:19;16.30;;;11.18;;
47481;SDS011;33219;47.410;9.730;2023-02-28T15:57:53;21.42;;;11.73;;
47481;SDS011;33219;47.410;9.730;2023-02-28T16:00:26;16.27;;;10.97;;
47481;SDS011;33219;47.410;9.730;2023-02-28T16:02:54;15.67;;;11.03;;
47481;SDS011;33219;47.410;9.730;2023-02-28T16:05:24;18.17;;;11.53;;
47481;SDS011;33219;47.410;9.730;2023-02-28T16:08:06;16.77;;;11.30;;
47481;SDS011;33219;47.410;9.730;2023-02-28T16:10:27;19.37;;;11.93;;
47481;SDS011;33219;47.410;9.730;2023-02-28T16:12:56;16.83;;;11.40;;
47481;SDS011;33219;47.410;9.730;2023-02-28T16:15:25;18.30;;;11.60;;
47481;SDS011;33219;47.410;9.730;2023-02-28T16:17:55;17.40;;;11.47;;
47481;SDS011;33219;47.410;9.730;2023-02-28T16:20:24;15.83;;;11.33;;
47481;SDS011;33219;47.410;9.730;2023-02-28T16:22:54;17.10;;;11.10;;
47481;SDS011;33219;47.410;9.730;2023-02-28T16:25:26;19.30;;;11.23;;
47481;SDS011;33219;47.410;9.730;2023-02-28T16:27:55;18.30;;;11.80;;
47481;SDS011;33219;47.410;9.730;2023-02-28T16:30:25;17.80;;;10.80;;
47481;SDS011;33219;47.410;9.730;2023-02-28T16:32:56;19.37;;;11.53;;
47481;SDS011;33219;47.410;9.730;2023-02-28T16:35:24;18.00;;;11.17;;
47481;SDS011;33219;47.410;9.730;2023-02-28T16:37:52;16.90;;;11.07;;
47481;SDS011;33219;47.410;9.730;2023-02-28T16:40:24;19.53;;;11.70;;
47481;SDS011;33219;47.410;9.730;2023-02-28T16:42:55;21.20;;;12.00;;
47481;SDS011;33219;47.410;9.730;2023-02-28T16:45:26;18.73;;;11.87;;
47481;SDS011;33219;47.410;9.730;2023-02-28T16:47:55;18.93;;;11.13;;
47481;SDS011;33219;47.410;9.730;2023-02-28T16:50:26;19.37;;;12.10;;
47481;SDS011;33219;47.410;9.730;2023-02-28T16:52:56;20.13;;;12.70;;
47481;SDS011;33219;47.410;9.730;2023-02-28T16:55:24;20.67;;;12.57;;
47481;SDS011;33219;47.410;9.730;2023-02-28T16:57:53;20.97;;;13.07;;
47481;SDS011;33219;47.410;9.730;2023-02-28T17:00:23;19.93;;;12.57;;
47481;SDS011;33219;47.410;9.730;2023-02-28T17:02:51;22.13;;;13.07;;
47481;SDS011;33219;47.410;9.730;2023-02-28T17:05:20;19.33;;;12.57;;
47481;SDS011;33219;47.410;9.730;2023-02-28T17:07:51;21.13;;;13.17;;
47481;SDS011;33219;47.410;9.730;2023-02-28T17:10:23;20.97;;;13.10;;
47481;SDS011;33219;47.410;9.730;2023-02-28T17:12:53;22.40;;;13.40;;
47481;SDS011;33219;47.410;9.730;2023-02-28T17:15:21;24.73;;;13.63;;
47481;SDS011;33219;47.410;9.730;2023-02-28T17:17:49;23.77;;;13.63;;
47481;SDS011;33219;47.410;9.730;2023-02-28T17:20:22;25.07;;;14.30;;
47481;SDS011;33219;47.410;9.730;2023-02-28T17:22:49;17.32;;;11.00;;
47481;SDS011;33219;47.410;9.730;2023-02-28T17:25:18;24.43;;;14.23;;
47481;SDS011;33219;47.410;9.730;2023-02-28T17:27:46;21.33;;;13.23;;
47481;SDS011;33219;47.410;9.730;2023-02-28T17:30:18;20.77;;;13.30;;
47481;SDS011;33219;47.410;9.730;2023-02-28T17:32:47;21.23;;;12.63;;
47481;SDS011;33219;47.410;9.730;2023-02-28T17:35:15;22.73;;;14.03;;
47481;SDS011;33219;47.410;9.730;2023-02-28T17:37:43;21.43;;;13.80;;
47481;SDS011;33219;47.410;9.730;2023-02-28T17:40:16;24.30;;;14.57;;
47481;SDS011;33219;47.410;9.730;2023-02-28T17:42:45;22.03;;;13.90;;
47481;SDS011;33219;47.410;9.730;2023-02-28T17:45:13;26.00;;;14.03;;
47481;SDS011;33219;47.410;9.730;2023-02-28T17:47:43;22.63;;;13.00;;
47481;SDS011;33219;47.410;9.730;2023-02-28T17:50:13;22.13;;;14.03;;
47481;SDS011;33219;47.410;9.730;2023-02-28T17:52:45;24.07;;;14.23;;
47481;SDS011;33219;47.410;9.730;2023-02-28T17:55:12;21.93;;;13.63;;
47481;SDS011;33219;47.410;9.730;2023-02-28T17:57:40;22.13;;;13.57;;
47481;SDS011;33219;47.410;9.730;2023-02-28T18:00:11;26.83;;;15.30;;
47481;SDS011;33219;47.410;9.730;2023-02-28T18:02:39;25.90;;;14.63;;
47481;SDS011;33219;47.410;9.730;2023-02-28T18:05:07;23.60;;;14.40;;
47481;SDS011;33219;47.410;9.730;2023-02-28T18:07:38;23.43;;;14.67;;
47481;SDS011;33219;47.410;9.730;2023-02-28T18:10:07;22.03;;;13.67;;
47481;SDS011;33219;47.410;9.730;2023-02-28T18:12:36;23.80;;;14.50;;
47481;SDS011;33219;47.410;9.730;2023-02-28T18:15:04;23.80;;;14.60;;
47481;SDS011;33219;47.410;9.730;2023-02-28T18:17:32;24.87;;;15.17;;
47481;SDS011;33219;47.410;9.730;2023-02-28T18:20:01;25.23;;;14.93;;
47481;SDS011;33219;47.410;9.730;2023-02-28T18:22:30;26.10;;;14.97;;
47481;SDS011;33219;47.410;9.730;2023-02-28T18:24:58;26.00;;;14.93;;
47481;SDS011;33219;47.410;9.730;2023-02-28T18:27:27;23.97;;;14.40;;
47481;SDS011;33219;47.410;9.730;2023-02-28T18:29:55;23.90;;;14.03;;
47481;SDS011;33219;47.410;9.730;2023-02-28T18:32:23;24.27;;;13.83;;
47481;SDS011;33219;47.410;9.730;2023-02-28T18:34:51;24.53;;;14.40;;
47481;SDS011;33219;47.410;9.730;2023-02-28T18:37:19;24.87;;;15.20;;
47481;SDS011;33219;47.410;9.730;2023-02-28T18:39:48;26.40;;;15.17;;
47481;SDS011;33219;47.410;9.730;2023-02-28T18:42:17;26.40;;;15.27;;
47481;SDS011;33219;47.410;9.730;2023-02-28T18:44:45;27.53;;;15.87;;
47481;SDS011;33219;47.410;9.730;2023-02-28T18:47:12;27.67;;;15.67;;
47481;SDS011;33219;47.410;9.730;2023-02-28T18:49:41;25.30;;;14.17;;
47481;SDS011;33219;47.410;9.730;2023-02-28T18:52:10;24.73;;;14.57;;
47481;SDS011;33219;47.410;9.730;2023-02-28T18:54:38;25.77;;;15.03;;
47481;SDS011;33219;47.410;9.730;2023-02-28T18:57:07;24.93;;;15.00;;
47481;SDS011;33219;47.410;9.730;2023-02-28T18:59:35;22.70;;;14.03;;
47481;SDS011;33219;47.410;9.730;2023-02-28T19:02:03;24.37;;;13.97;;
47481;SDS011;33219;47.410;9.730;2023-02-28T19:04:31;22.37;;;13.60;;
47481;SDS011;33219;47.410;9.730;2023-02-28T19:06:59;22.13;;;13.63;;
47481;SDS011;33219;47.410;9.730;2023-02-28T19:09:27;28.37;;;14.80;;
47481;SDS011;33219;47.410;9.730;2023-02-28T19:11:58;26.50;;;14.57;;
47481;SDS011;33219;47.410;9.730;2023-02-28T19:14:27;18.15;;;11.80;;
47481;SDS011;33219;47.410;9.730;2023-02-28T19:16:55;24.37;;;14.17;;
47481;SDS011;33219;47.410;9.730;2023-02-28T19:19:24;24.30;;;13.23;;
47481;SDS011;33219;47.410;9.730;2023-02-28T19:21:52;22.83;;;13.53;;
47481;SDS011;33219;47.410;9.730;2023-02-28T19:24:22;22.33;;;12.97;;
47481;SDS011;33219;47.410;9.730;2023-02-28T19:26:49;22.20;;;13.93;;
47481;SDS011;33219;47.410;9.730;2023-02-28T19:29:17;23.83;;;14.23;;
47481;SDS011;33219;47.410;9.730;2023-02-28T19:31:45;23.47;;;13.97;;
47481;SDS011;33219;47.410;9.730;2023-02-28T19:34:13;24.37;;;14.73;;
47481;SDS011;33219;47.410;9.730;2023-02-28T19:36:41;24.60;;;13.07;;
47481;SDS011;33219;47.410;9.730;2023-02-28T19:39:09;25.23;;;14.27;;
47481;SDS011;33219;47.410;9.730;2023-02-28T19:41:37;25.13;;;14.77;;
47481;SDS011;33219;47.410;9.730;2023-02-28T19:44:05;24.70;;;13.80;;
47481;SDS011;33219;47.410;9.730;2023-02-28T19:46:33;24.63;;;14.00;;
47481;SDS011;33219;47.410;9.730;2023-02-28T19:49:04;27.83;;;14.73;;
47481;SDS011;33219;47.410;9.730;2023-02-28T19:51:32;24.57;;;14.57;;
47481;SDS011;33219;47.410;9.730;2023-02-28T19:54:00;25.27;;;14.00;;
47481;SDS011;33219;47.410;9.730;2023-02-28T19:56:29;23.00;;;14.60;;
47481;SDS011;33219;47.410;9.730;2023-02-28T19:58:57;27.73;;;14.77;;
47481;SDS011;33219;47.410;9.730;2023-02-28T20:01:25;23.27;;;14.27;;
47481;SDS011;33219;47.410;9.730;2023-02-28T20:03:53;28.60;;;16.17;;
47481;SDS011;33219;47.410;9.730;2023-02-28T20:06:21;27.60;;;15.97;;
47481;SDS011;33219;47.410;9.730;2023-02-28T20:08:49;23.47;;;14.70;;
47481;SDS011;33219;47.410;9.730;2023-02-28T20:11:20;24.13;;;15.30;;
47481;SDS011;33219;47.410;9.730;2023-02-28T20:13:51;26.47;;;14.87;;
47481;SDS011;33219;47.410;9.730;2023-02-28T20:16:22;27.60;;;15.03;;
47481;SDS011;33219;47.410;9.730;2023-02-28T20:18:51;30.27;;;15.73;;
47481;SDS011;33219;47.410;9.730;2023-02-28T20:21:19;25.50;;;14.90;;
47481;SDS011;33219;47.410;9.730;2023-02-28T20:23:47;26.37;;;15.50;;
47481;SDS011;33219;47.410;9.730;2023-02-28T20:26:15;25.80;;;14.40;;
47481;SDS011;33219;47.410;9.730;2023-02-28T20:28:46;25.70;;;14.80;;
47481;SDS011;33219;47.410;9.730;2023-02-28T20:31:16;28.13;;;15.00;;
47481;SDS011;33219;47.410;9.730;2023-02-28T20:33:47;19.85;;;11.33;;
47481;SDS011;33219;47.410;9.730;2023-02-28T20:36:16;23.93;;;14.03;;
47481;SDS011;33219;47.410;9.730;2023-02-28T20:38:46;27.70;;;14.57;;
47481;SDS011;33219;47.410;9.730;2023-02-28T20:41:14;25.30;;;15.17;;
47481;SDS011;33219;47.410;9.730;2023-02-28T20:43:42;25.83;;;14.77;;
47481;SDS011;33219;47.410;9.730;2023-02-28T20:46:10;26.57;;;15.30;;
47481;SDS011;33219;47.410;9.730;2023-02-28T20:48:38;24.87;;;15.17;;
47481;SDS011;33219;47.410;9.730;2023-02-28T20:51:06;27.00;;;15.03;;
47481;SDS011;33219;47.410;9.730;2023-02-28T20:53:35;25.80;;;15.77;;
47481;SDS011;33219;47.410;9.730;2023-02-28T20:56:04;28.53;;;15.73;;
47481;SDS011;33219;47.410;9.730;2023-02-28T20:58:34;28.83;;;15.80;;
47481;SDS011;33219;47.410;9.730;2023-02-28T21:01:04;28.63;;;15.47;;
47481;SDS011;33219;47.410;9.730;2023-02-28T21:03:48;27.70;;;15.57;;
47481;SDS011;33219;47.410;9.730;2023-02-28T21:06:13;27.63;;;15.67;;
47481;SDS011;33219;47.410;9.730;2023-02-28T21:08:42;26.47;;;15.47;;
47481;SDS011;33219;47.410;9.730;2023-02-28T21:11:11;25.13;;;14.80;;